Time;durP1;ratioP1;P1;durP2;ratioP2;P2;SDS_P1;SDS_P2;PMS_P1;PMS_P2;Temp;Humidity;BMP_temperature;BMP_pressure;BME280_temperature;BME280_humidity;BME280_pressure;Samples;Min_cycle;Max_cycle;Signal;HPM_P1;HPM_P2
2022/01/08 00:00:36;;;;;;;113.72;56.90;;;3.20;99.90;;;;;;5078953;28;20119;-81
2022/01/08 00:03:03;;;;;;;106.22;55.08;;;3.20;99.90;;;;;;5078936;28;20035;-81
2022/01/08 00:05:31;;;;;;;120.57;57.60;;;3.20;99.90;;;;;;5079011;28;20070;-81
2022/01/08 00:08:01;;;;;;;113.38;54.53;;;3.20;99.90;;;;;;5073819;28;20060;-79
2022/01/08 00:10:28;;;;;;;106.68;51.80;;;3.20;99.90;;;;;;5096659;28;20044;-81
2022/01/08 00:13:01;;;;;;;124.22;58.72;;;3.20;99.90;;;;;;5093079;28;20048;-81
2022/01/08 00:15:29;;;;;;;122.60;59.22;;;3.20;99.90;;;;;;5081559;28;20067;-81
2022/01/08 00:17:56;;;;;;;133.85;64.32;;;3.20;99.90;;;;;;5065005;28;20070;-82
2022/01/08 00:20:24;;;;;;;132.82;61.28;;;3.20;99.90;;;;;;5082847;28;20040;-81
2022/01/08 00:22:55;;;;;;;111.60;54.15;;;3.20;99.90;;;;;;5086558;28;20091;-82
2022/01/08 00:25:23;;;;;;;116.25;56.50;;;3.20;99.90;;;;;;5099725;28;20407;-82
2022/01/08 00:27:51;;;;;;;119.03;55.83;;;3.20;99.90;;;;;;5098671;28;20044;-80
2022/01/08 00:30:20;;;;;;;117.10;55.70;;;3.20;99.90;;;;;;5082669;28;20064;-81
2022/01/08 00:32:47;;;;;;;112.47;55.60;;;3.20;99.90;;;;;;5074828;28;20101;-79
2022/01/08 00:35:16;;;;;;;110.63;55.33;;;3.20;99.90;;;;;;5080196;28;20421;-80
2022/01/08 00:37:44;;;;;;;117.13;57.15;;;3.20;99.90;;;;;;5079042;28;20052;-80
2022/01/08 00:40:13;;;;;;;120.82;55.78;;;3.20;99.90;;;;;;5061246;28;20047;-80
2022/01/08 00:42:41;;;;;;;106.28;56.78;;;3.20;99.90;;;;;;5064904;28;20051;-80
2022/01/08 00:45:09;;;;;;;117.20;57.63;;;3.20;99.90;;;;;;5098902;28;20064;-80
2022/01/08 00:47:38;;;;;;;115.72;56.88;;;3.20;99.90;;;;;;5086262;28;20461;-80
2022/01/08 00:50:06;;;;;;;121.72;59.97;;;3.20;99.90;;;;;;5079000;28;20037;-80
2022/01/08 00:52:34;;;;;;;99.20;50.92;;;3.20;99.90;;;;;;5060608;28;20567;-82
2022/01/08 00:55:01;;;;;;;95.28;48.50;;;3.10;99.90;;;;;;5078600;28;20108;-81
2022/01/08 00:57:29;;;;;;;99.65;51.13;;;3.10;99.90;;;;;;5098697;28;20054;-78
2022/01/08 00:59:57;;;;;;;109.65;54.53;;;3.00;99.90;;;;;;5120008;28;20051;-79
2022/01/08 01:02:25;;;;;;;112.95;55.30;;;3.00;99.90;;;;;;5102867;28;20051;-78
2022/01/08 01:04:56;;;;;;;112.75;57.65;;;3.00;99.90;;;;;;5101652;28;20058;-83
2022/01/08 01:07:24;;;;;;;121.35;57.55;;;3.00;99.90;;;;;;5107109;28;20056;-82
2022/01/08 01:09:52;;;;;;;108.97;56.45;;;3.00;99.90;;;;;;5080513;28;20083;-82
2022/01/08 01:12:19;;;;;;;111.68;58.25;;;3.00;99.90;;;;;;5072153;28;20055;-82
2022/01/08 01:14:47;;;;;;;96.25;51.15;;;3.10;99.90;;;;;;5077440;28;20387;-79
2022/01/08 01:17:14;;;;;;;107.70;55.03;;;3.10;99.90;;;;;;5061556;28;20040;-80
2022/01/08 01:19:42;;;;;;;110.25;57.85;;;3.20;99.90;;;;;;5081002;28;20045;-81
2022/01/08 01:22:15;;;;;;;116.15;60.42;;;3.20;99.90;;;;;;5077249;28;20045;-82
2022/01/08 01:24:42;;;;;;;133.38;69.50;;;3.10;99.90;;;;;;5072244;28;20381;-80
2022/01/08 01:27:51;;;;;;;127.47;66.03;;;3.00;99.90;;;;;;5076987;28;20071;-81
2022/01/08 01:30:19;;;;;;;138.10;71.88;;;3.00;99.90;;;;;;5077748;28;20127;-80
2022/01/08 01:41:22;;;;;;;143.05;74.20;;;3.00;99.90;;;;;;5085191;28;20071;-81
2022/01/08 01:49:22;;;;;;;122.97;64.65;;;3.10;99.90;;;;;;5058022;28;20442;-82
2022/01/08 01:51:49;;;;;;;144.05;71.25;;;3.10;99.90;;;;;;5046988;28;20060;-81
2022/01/08 01:54:18;;;;;;;127.47;67.55;;;3.20;99.90;;;;;;5070190;28;20063;-82
2022/01/08 01:56:46;;;;;;;139.43;73.43;;;3.10;99.90;;;;;;5079408;28;20028;-82
2022/01/08 01:59:14;;;;;;;129.90;68.30;;;3.10;99.90;;;;;;5082184;28;20040;-82
2022/01/08 02:01:42;;;;;;;133.20;69.05;;;3.10;99.90;;;;;;5101698;28;20162;-83
2022/01/08 02:04:09;;;;;;;123.65;67.18;;;3.10;99.90;;;;;;5081510;28;20072;-82
2022/01/08 02:06:37;;;;;;;127.38;66.00;;;3.10;99.90;;;;;;5097291;28;20123;-81
2022/01/08 02:09:04;;;;;;;121.78;65.30;;;3.10;99.90;;;;;;5072073;28;20064;-81
2022/01/08 02:11:35;;;;;;;117.07;62.17;;;3.10;99.90;;;;;;5056372;28;20076;-82
2022/01/08 02:14:03;;;;;;;129.80;65.18;;;3.10;99.90;;;;;;5063710;28;20098;-81
2022/01/08 02:16:31;;;;;;;119.38;63.00;;;3.20;99.90;;;;;;5068297;28;20575;-81
2022/01/08 02:18:58;;;;;;;117.25;64.18;;;3.20;99.90;;;;;;5062476;28;20041;-81
2022/01/08 02:21:28;;;;;;;120.90;62.40;;;3.10;99.90;;;;;;5085648;28;20040;-81
2022/01/08 02:23:55;;;;;;;121.82;64.13;;;3.10;99.90;;;;;;5064088;28;20067;-79
2022/01/08 02:26:23;;;;;;;115.93;58.42;;;3.10;99.90;;;;;;5086865;28;20036;-82
2022/01/08 02:28:50;;;;;;;107.85;56.63;;;3.10;99.90;;;;;;5082095;28;20079;-81
2022/01/08 02:31:22;;;;;;;99.18;54.50;;;3.10;99.90;;;;;;5059941;28;20084;-81
2022/01/08 02:33:50;;;;;;;106.78;54.47;;;3.10;99.90;;;;;;5059320;28;20041;-81
2022/01/08 02:36:17;;;;;;;99.88;51.78;;;3.00;99.90;;;;;;5055859;28;20152;-80
2022/01/08 02:38:47;;;;;;;101.60;51.40;;;3.00;99.90;;;;;;5059307;28;20040;-82
2022/01/08 02:41:15;;;;;;;94.25;50.70;;;3.00;99.90;;;;;;5074190;28;20046;-82
2022/01/08 02:43:46;;;;;;;92.28;49.85;;;3.00;99.90;;;;;;5075803;28;20048;-80
2022/01/08 02:46:13;;;;;;;90.13;48.38;;;2.90;99.90;;;;;;5059475;28;20041;-79
2022/01/08 02:48:41;;;;;;;89.95;47.22;;;2.90;99.90;;;;;;5080138;28;20045;-82
2022/01/08 02:51:08;;;;;;;92.25;48.78;;;2.90;99.90;;;;;;5076496;28;20048;-80
2022/01/08 02:53:36;;;;;;;90.95;48.95;;;2.90;99.90;;;;;;5075362;28;20048;-79
2022/01/08 02:56:05;;;;;;;90.68;49.70;;;2.90;99.90;;;;;;5074681;28;20036;-82
2022/01/08 02:58:34;;;;;;;87.30;46.35;;;2.90;99.90;;;;;;5075996;28;20203;-81
2022/01/08 03:01:01;;;;;;;88.30;48.97;;;2.90;99.90;;;;;;5074947;28;20059;-81
2022/01/08 03:03:29;;;;;;;88.65;45.97;;;2.90;99.90;;;;;;5095409;28;20044;-82
2022/01/08 03:05:57;;;;;;;92.85;45.25;;;2.90;99.90;;;;;;5102026;28;20044;-82
2022/01/08 03:08:26;;;;;;;91.63;47.35;;;2.80;99.90;;;;;;5086440;28;21039;-81
2022/01/08 03:10:54;;;;;;;91.70;46.45;;;2.70;99.90;;;;;;5066382;28;20056;-81
2022/01/08 03:13:23;;;;;;;84.75;48.00;;;2.70;99.90;;;;;;5068878;28;20056;-81
2022/01/08 03:15:50;;;;;;;89.25;49.38;;;2.70;99.90;;;;;;5060444;28;22028;-81
2022/01/08 03:18:18;;;;;;;99.90;50.22;;;2.70;99.90;;;;;;5052418;28;20045;-80
2022/01/08 03:20:53;;;;;;;88.60;46.47;;;2.80;99.90;;;;;;5078483;28;20049;-82
2022/01/08 03:23:21;;;;;;;93.30;49.05;;;2.80;99.90;;;;;;5078926;28;20047;-81
2022/01/08 03:25:48;;;;;;;88.03;49.78;;;2.80;99.90;;;;;;5061183;28;20534;-80
2022/01/08 03:28:16;;;;;;;97.38;49.80;;;2.80;99.90;;;;;;5077307;28;20056;-80
2022/01/08 03:30:45;;;;;;;83.85;47.78;;;2.90;99.90;;;;;;5076595;28;20068;-82
2022/01/08 03:33:12;;;;;;;88.53;48.58;;;2.80;99.90;;;;;;5077515;28;20079;-80
2022/01/08 03:35:40;;;;;;;88.65;49.20;;;2.80;99.90;;;;;;5077609;28;20040;-82
2022/01/08 03:38:07;;;;;;;92.38;48.13;;;2.80;99.90;;;;;;5072567;28;20052;-82
2022/01/08 03:40:35;;;;;;;92.45;47.20;;;2.80;99.90;;;;;;5085572;28;20136;-79
2022/01/08 03:43:02;;;;;;;90.47;47.17;;;2.80;99.90;;;;;;5059118;28;20052;-81
2022/01/08 03:45:33;;;;;;;89.15;46.25;;;2.70;99.90;;;;;;5061368;28;20045;-83
2022/01/08 03:48:25;;;;;;;89.88;47.63;;;2.70;99.90;;;;;;5053109;28;20067;-82
2022/01/08 03:50:54;;;;;;;89.10;48.63;;;2.70;99.90;;;;;;5077565;28;20262;-80
2022/01/08 03:53:21;;;;;;;96.25;49.53;;;2.70;99.90;;;;;;5070814;28;20040;-81
2022/01/08 03:55:49;;;;;;;89.47;48.55;;;2.70;99.90;;;;;;5074433;28;20048;-79
2022/01/08 03:58:16;;;;;;;89.38;47.03;;;2.80;99.90;;;;;;5082000;28;20066;-79
2022/01/08 04:00:44;;;;;;;85.18;48.28;;;2.80;99.90;;;;;;5061771;28;20072;-80
2022/01/08 04:03:13;;;;;;;92.30;47.80;;;2.80;99.90;;;;;;5079448;28;20040;-81
2022/01/08 04:05:41;;;;;;;84.28;47.13;;;2.80;99.90;;;;;;5078696;28;20040;-79
2022/01/08 04:08:10;;;;;;;89.18;47.63;;;2.70;99.90;;;;;;5080209;28;20052;-82
2022/01/08 04:10:38;;;;;;;94.43;46.88;;;2.70;99.90;;;;;;5080243;28;20056;-80
2022/01/08 04:13:11;;;;;;;91.25;47.00;;;2.60;99.90;;;;;;5073764;28;20120;-81
2022/01/08 04:15:41;;;;;;;90.78;50.78;;;2.60;99.90;;;;;;5051446;28;20071;-81
2022/01/08 04:18:10;;;;;;;91.72;52.85;;;2.60;99.90;;;;;;5077528;28;20036;-80
2022/01/08 04:20:50;;;;;;;91.30;52.55;;;2.60;99.90;;;;;;5094301;28;20044;-79
2022/01/08 04:23:21;;;;;;;88.10;49.13;;;2.60;99.90;;;;;;5087406;28;20551;-79
2022/01/08 04:25:49;;;;;;;93.25;48.42;;;2.60;99.90;;;;;;5081592;28;20094;-80
2022/01/08 04:28:17;;;;;;;91.60;49.42;;;2.60;99.90;;;;;;5079423;28;20427;-80
2022/01/08 04:30:45;;;;;;;91.20;48.65;;;2.60;99.90;;;;;;5078438;28;20094;-80
2022/01/08 04:33:13;;;;;;;82.32;47.53;;;2.60;99.90;;;;;;5078565;28;20055;-81
2022/01/08 04:35:42;;;;;;;85.78;47.38;;;2.70;99.90;;;;;;5077100;28;20044;-80
2022/01/08 04:38:11;;;;;;;81.05;46.75;;;2.70;99.90;;;;;;5078806;28;20545;-80
2022/01/08 04:40:40;;;;;;;81.63;43.92;;;2.70;99.90;;;;;;5079589;28;20053;-81
2022/01/08 04:43:08;;;;;;;73.85;43.30;;;2.70;99.90;;;;;;5080702;28;20043;-81
2022/01/08 04:45:36;;;;;;;75.53;43.63;;;2.70;99.90;;;;;;5078699;28;20115;-79
2022/01/08 04:48:03;;;;;;;76.05;43.58;;;2.70;99.90;;;;;;5078875;28;20095;-81
2022/01/08 04:50:31;;;;;;;79.30;43.42;;;2.70;99.90;;;;;;5079994;28;20147;-81
2022/01/08 04:53:00;;;;;;;70.35;41.30;;;2.60;99.90;;;;;;5070521;28;20033;-78
2022/01/08 04:55:28;;;;;;;80.20;42.25;;;2.50;99.90;;;;;;5079073;28;20140;-81
2022/01/08 04:57:56;;;;;;;76.68;42.45;;;2.50;99.90;;;;;;5077386;28;20041;-79
2022/01/08 05:00:23;;;;;;;75.57;42.38;;;2.50;99.90;;;;;;5077302;28;20044;-81
2022/01/08 05:02:51;;;;;;;81.72;43.45;;;2.50;99.90;;;;;;5076916;28;20522;-80
2022/01/08 05:05:18;;;;;;;85.25;44.13;;;2.50;99.90;;;;;;5076058;28;20415;-78
2022/01/08 05:07:46;;;;;;;82.78;42.90;;;2.50;99.90;;;;;;5076427;28;20123;-79
2022/01/08 05:10:15;;;;;;;74.03;41.58;;;2.50;99.90;;;;;;5077554;28;20040;-78
2022/01/08 05:12:43;;;;;;;78.53;41.85;;;2.50;99.90;;;;;;5076091;28;20094;-80
2022/01/08 05:15:11;;;;;;;75.20;41.28;;;2.50;99.90;;;;;;5076182;28;20510;-80
2022/01/08 05:17:40;;;;;;;76.97;41.75;;;2.50;99.90;;;;;;5074094;28;20037;-80
2022/01/08 05:20:10;;;;;;;80.22;40.67;;;2.50;99.90;;;;;;5076602;28;20388;-80
2022/01/08 05:22:50;;;;;;;69.63;39.92;;;2.50;99.90;;;;;;5076031;28;20063;-80
2022/01/08 05:25:21;;;;;;;75.65;40.75;;;2.50;99.90;;;;;;5069022;28;20040;-80
2022/01/08 05:27:49;;;;;;;80.15;42.47;;;2.50;99.90;;;;;;5083427;28;20480;-80
2022/01/08 05:30:19;;;;;;;79.53;42.83;;;2.50;99.90;;;;;;5080879;28;20047;-80
2022/01/08 05:32:47;;;;;;;78.07;42.17;;;2.50;99.90;;;;;;5080188;28;20075;-81
2022/01/08 05:35:15;;;;;;;81.47;43.92;;;2.50;99.90;;;;;;5097905;28;20511;-81
2022/01/08 05:37:43;;;;;;;86.20;45.42;;;2.40;99.90;;;;;;5096834;28;20048;-82
2022/01/08 05:40:12;;;;;;;76.20;42.22;;;2.50;99.90;;;;;;5093867;28;20048;-81
2022/01/08 05:42:41;;;;;;;72.28;43.47;;;2.50;99.90;;;;;;5078777;28;20107;-82
2022/01/08 05:45:10;;;;;;;76.07;43.55;;;2.40;99.90;;;;;;5078272;28;20040;-80
2022/01/08 05:47:38;;;;;;;77.03;39.85;;;2.40;99.90;;;;;;5078458;28;20100;-80
2022/01/08 05:50:07;;;;;;;68.15;40.03;;;2.40;99.90;;;;;;5078744;28;20510;-81
2022/01/08 05:52:35;;;;;;;71.40;39.28;;;2.40;99.90;;;;;;5078129;28;20079;-80
2022/01/08 05:55:02;;;;;;;76.65;40.83;;;2.40;99.90;;;;;;5078022;28;20071;-81
2022/01/08 05:57:30;;;;;;;73.97;39.60;;;2.40;99.90;;;;;;5087796;28;20571;-81
2022/01/08 06:00:01;;;;;;;63.90;37.00;;;2.40;99.90;;;;;;5092477;28;20041;-78
2022/01/08 06:02:36;;;;;;;63.33;36.83;;;2.40;99.90;;;;;;5077622;28;20056;-80
2022/01/08 06:05:03;;;;;;;73.32;37.25;;;2.50;99.90;;;;;;5076194;28;20112;-78
2022/01/08 06:07:31;;;;;;;68.72;37.50;;;2.50;99.90;;;;;;5077390;28;20049;-81
2022/01/08 06:10:01;;;;;;;67.15;37.17;;;2.50;99.90;;;;;;5076946;28;20051;-82
2022/01/08 06:12:29;;;;;;;68.05;37.70;;;2.50;99.90;;;;;;5078045;28;20068;-79
2022/01/08 06:14:58;;;;;;;68.60;36.72;;;2.50;99.90;;;;;;5069931;28;20416;-79
2022/01/08 06:17:26;;;;;;;68.70;37.97;;;2.50;99.90;;;;;;5058285;28;20087;-81
2022/01/08 06:19:53;;;;;;;64.65;37.08;;;2.40;99.90;;;;;;5063674;28;20430;-81
2022/01/08 06:22:21;;;;;;;70.88;36.78;;;2.40;99.90;;;;;;5097051;28;20051;-81
2022/01/08 06:24:49;;;;;;;70.18;38.80;;;2.40;99.90;;;;;;5067464;28;20131;-79
2022/01/08 06:27:16;;;;;;;72.15;39.47;;;2.40;99.90;;;;;;5070591;28;20094;-79
2022/01/08 06:29:44;;;;;;;70.45;38.55;;;2.50;99.90;;;;;;5080180;28;20041;-80
2022/01/08 06:32:15;;;;;;;70.57;40.58;;;2.50;99.90;;;;;;5080996;28;20044;-80
2022/01/08 06:34:43;;;;;;;75.47;41.00;;;2.50;99.90;;;;;;5079787;28;20056;-81
2022/01/08 06:37:11;;;;;;;72.25;39.63;;;2.50;99.90;;;;;;5081004;28;20040;-79
2022/01/08 06:39:39;;;;;;;75.40;42.30;;;2.50;99.90;;;;;;5080299;28;20070;-79
2022/01/08 06:42:07;;;;;;;75.28;44.22;;;2.40;99.90;;;;;;5078737;28;20060;-81
2022/01/08 06:44:35;;;;;;;78.88;42.60;;;2.50;99.90;;;;;;5075416;28;20044;-81
2022/01/08 06:47:03;;;;;;;80.90;44.75;;;2.50;99.90;;;;;;5078477;28;20036;-81
2022/01/08 06:49:32;;;;;;;81.53;46.45;;;2.50;99.90;;;;;;5069028;28;20491;-82
2022/01/08 06:51:59;;;;;;;74.95;43.63;;;2.40;99.90;;;;;;5079450;28;20097;-80
2022/01/08 06:54:27;;;;;;;82.95;46.70;;;2.30;99.90;;;;;;5079882;28;20043;-80
2022/01/08 06:56:54;;;;;;;71.43;42.38;;;2.30;99.90;;;;;;5079269;28;20041;-80
2022/01/08 06:59:22;;;;;;;70.32;40.40;;;2.40;99.90;;;;;;5062445;28;20049;-80
2022/01/08 07:01:49;;;;;;;73.43;41.03;;;2.30;99.90;;;;;;5058297;28;20056;-79
2022/01/08 07:04:17;;;;;;;72.00;40.88;;;2.40;99.90;;;;;;5080129;28;20048;-82
2022/01/08 07:06:46;;;;;;;73.35;40.60;;;2.40;99.90;;;;;;5080716;28;20045;-79
2022/01/08 07:09:13;;;;;;;70.22;40.90;;;2.30;99.90;;;;;;5079415;28;20052;-82
2022/01/08 07:11:41;;;;;;;77.50;41.88;;;2.40;99.90;;;;;;5081787;28;20044;-80
2022/01/08 07:14:09;;;;;;;70.43;42.97;;;2.40;99.90;;;;;;5080658;28;20041;-79
2022/01/08 07:16:36;;;;;;;77.82;43.72;;;2.40;99.90;;;;;;5063113;28;20121;-81
2022/01/08 07:19:04;;;;;;;77.55;43.08;;;2.40;99.90;;;;;;5055580;28;20531;-79
2022/01/08 07:21:32;;;;;;;74.90;41.95;;;2.30;99.90;;;;;;5054237;28;20048;-80
2022/01/08 07:24:01;;;;;;;77.20;42.30;;;2.20;99.90;;;;;;5081971;28;20108;-80
2022/01/08 07:26:28;;;;;;;84.07;45.53;;;2.30;99.90;;;;;;5083765;28;20040;-79
2022/01/08 07:28:56;;;;;;;77.80;43.20;;;2.20;99.90;;;;;;5083366;28;20036;-80
2022/01/08 07:31:23;;;;;;;73.38;42.50;;;2.20;99.90;;;;;;5083522;28;20094;-82
2022/01/08 07:33:51;;;;;;;73.05;40.92;;;2.30;99.90;;;;;;5067730;28;20052;-83
2022/01/08 07:36:19;;;;;;;75.25;41.50;;;2.20;99.90;;;;;;5085068;28;20051;-82
2022/01/08 07:38:47;;;;;;;82.05;46.17;;;2.30;99.90;;;;;;5085103;28;20033;-82
2022/01/08 07:41:16;;;;;;;78.07;44.15;;;2.30;99.90;;;;;;5068305;28;20053;-78
2022/01/08 07:43:44;;;;;;;81.20;43.42;;;2.40;99.90;;;;;;5081735;28;20072;-78
2022/01/08 07:46:11;;;;;;;85.10;45.05;;;2.50;99.90;;;;;;5085854;28;20099;-79
2022/01/08 07:48:40;;;;;;;86.80;47.13;;;2.50;99.90;;;;;;5085192;28;20075;-79
2022/01/08 07:51:08;;;;;;;76.38;44.30;;;2.50;99.90;;;;;;5094080;28;20044;-81
2022/01/08 07:53:35;;;;;;;80.00;44.70;;;2.60;99.90;;;;;;5091104;28;20021;-82
2022/01/08 07:56:03;;;;;;;68.10;42.20;;;2.70;99.90;;;;;;5084350;28;20094;-82
2022/01/08 07:58:32;;;;;;;74.35;42.33;;;2.90;99.90;;;;;;5079909;28;20056;-83
2022/01/08 08:00:59;;;;;;;80.10;43.90;;;2.90;99.90;;;;;;5092424;28;20053;-82
2022/01/08 08:03:27;;;;;;;70.20;41.72;;;3.00;99.90;;;;;;5097833;28;20040;-80
2022/01/08 08:05:54;;;;;;;70.95;43.22;;;2.90;99.90;;;;;;5096392;28;20463;-81
2022/01/08 08:08:22;;;;;;;70.72;41.55;;;2.90;99.90;;;;;;5090569;28;20045;-83
2022/01/08 08:10:51;;;;;;;77.28;44.30;;;3.00;99.90;;;;;;5095607;28;20066;-79
2022/01/08 08:13:19;;;;;;;76.18;44.28;;;3.00;99.90;;;;;;5094944;28;20048;-83
2022/01/08 08:15:49;;;;;;;77.38;44.28;;;2.90;99.90;;;;;;5097812;28;20048;-82
2022/01/08 08:18:16;;;;;;;80.28;46.10;;;2.90;99.90;;;;;;5098293;28;20100;-81
2022/01/08 08:20:44;;;;;;;85.13;48.10;;;3.00;99.90;;;;;;5077993;28;20102;-82
2022/01/08 08:23:12;;;;;;;89.45;50.63;;;3.00;99.90;;;;;;5069039;28;20064;-82
2022/01/08 08:25:40;;;;;;;92.20;49.58;;;3.10;99.90;;;;;;5078857;28;20388;-83
2022/01/08 08:28:09;;;;;;;89.95;49.65;;;3.20;99.90;;;;;;5065419;28;20048;-83
2022/01/08 08:30:38;;;;;;;92.88;52.28;;;3.20;99.90;;;;;;5066589;28;20053;-84
2022/01/08 08:33:07;;;;;;;81.97;47.78;;;3.20;99.90;;;;;;5052380;28;20040;-82
2022/01/08 08:35:35;;;;;;;85.20;49.15;;;3.40;99.90;;;;;;5076924;28;20068;-84
2022/01/08 08:38:03;;;;;;;81.45;48.28;;;3.30;99.90;;;;;;5061713;28;20041;-84
2022/01/08 08:40:31;;;;;;;89.90;50.33;;;3.10;99.90;;;;;;5079614;28;20531;-83
2022/01/08 08:42:58;;;;;;;91.88;51.85;;;3.00;99.90;;;;;;5081576;28;20090;-82
2022/01/08 08:45:26;;;;;;;89.82;51.38;;;3.00;99.90;;;;;;5081349;28;20040;-81
2022/01/08 08:47:56;;;;;;;85.15;49.33;;;3.00;99.90;;;;;;5085923;28;20040;-83
2022/01/08 08:50:25;;;;;;;88.30;48.97;;;3.10;99.90;;;;;;5081745;28;20044;-82
2022/01/08 08:52:56;;;;;;;87.65;47.63;;;3.10;99.90;;;;;;5088991;28;20056;-83
2022/01/08 08:55:23;;;;;;;89.45;50.35;;;3.10;99.90;;;;;;5083753;28;20110;-85
2022/01/08 08:57:52;;;;;;;80.47;49.67;;;3.10;99.90;;;;;;5090861;28;20041;-82
2022/01/08 09:00:19;;;;;;;82.38;49.10;;;3.10;99.90;;;;;;5090415;28;20040;-86
2022/01/08 09:02:47;;;;;;;87.78;52.90;;;3.10;99.90;;;;;;5095548;28;20040;-83
2022/01/08 09:05:14;;;;;;;86.93;51.72;;;3.10;99.90;;;;;;5093358;28;20093;-85
2022/01/08 09:07:45;;;;;;;89.55;49.05;;;3.10;99.90;;;;;;5087730;28;20053;-85
2022/01/08 09:10:13;;;;;;;84.25;49.25;;;3.20;99.90;;;;;;5078445;28;20055;-82
2022/01/08 09:12:42;;;;;;;92.72;51.47;;;3.30;99.90;;;;;;5075530;28;20464;-81
2022/01/08 09:15:12;;;;;;;87.38;52.65;;;3.30;99.90;;;;;;5059353;28;20040;-81
2022/01/08 09:17:40;;;;;;;91.18;51.55;;;3.40;99.90;;;;;;5068616;28;20040;-85
2022/01/08 09:20:10;;;;;;;90.18;51.63;;;3.40;99.90;;;;;;5065132;28;20036;-82
2022/01/08 09:22:38;;;;;;;95.95;54.05;;;3.20;99.90;;;;;;5058612;28;20045;-84
2022/01/08 09:25:08;;;;;;;83.40;52.03;;;3.10;99.90;;;;;;5077909;28;20044;-82
2022/01/08 09:27:35;;;;;;;88.85;53.10;;;3.00;99.90;;;;;;5073550;28;20070;-81
2022/01/08 09:30:05;;;;;;;91.75;53.80;;;2.90;99.90;;;;;;5071861;28;20041;-82
2022/01/08 09:32:32;;;;;;;89.75;52.58;;;2.90;99.90;;;;;;5060030;28;20127;-82
2022/01/08 09:35:00;;;;;;;97.13;53.50;;;3.00;99.90;;;;;;5077524;28;20045;-81
2022/01/08 09:37:28;;;;;;;96.05;56.47;;;3.20;99.90;;;;;;5077328;28;20048;-84
2022/01/08 09:39:55;;;;;;;87.70;53.63;;;3.20;99.90;;;;;;5076872;28;20032;-80
2022/01/08 09:42:24;;;;;;;90.72;56.20;;;3.30;99.90;;;;;;5073151;28;20050;-81
2022/01/08 09:44:52;;;;;;;92.10;56.00;;;3.40;99.90;;;;;;5060686;28;20048;-82
2022/01/08 09:47:21;;;;;;;86.47;54.65;;;3.20;99.90;;;;;;5077224;28;20450;-82
2022/01/08 09:49:50;;;;;;;93.47;55.88;;;3.20;99.90;;;;;;5059918;28;20052;-82
2022/01/08 09:52:17;;;;;;;90.72;54.65;;;3.10;99.90;;;;;;5076705;28;20278;-83
2022/01/08 09:54:45;;;;;;;96.40;57.63;;;3.20;99.90;;;;;;5076243;28;20044;-81
2022/01/08 09:57:12;;;;;;;85.80;52.25;;;3.30;99.90;;;;;;5078835;28;20048;-83
2022/01/08 09:59:41;;;;;;;86.43;52.25;;;3.50;99.90;;;;;;5077510;28;20043;-81
2022/01/08 10:02:09;;;;;;;81.35;50.33;;;3.70;99.90;;;;;;5075669;28;20055;-81
2022/01/08 10:04:38;;;;;;;77.88;46.75;;;3.70;99.90;;;;;;5058176;28;20139;-81
2022/01/08 10:07:17;;;;;;;87.20;50.67;;;3.90;99.90;;;;;;5078697;28;20056;-82
2022/01/08 10:09:59;;;;;;;90.75;53.05;;;4.20;99.90;;;;;;5077967;28;20124;-82
2022/01/08 10:12:47;;;;;;;93.07;53.45;;;4.30;99.90;;;;;;5077295;28;20451;-82
2022/01/08 10:18:10;;;;;;;89.15;53.30;;;4.40;99.90;;;;;;5081030;28;20045;-82
2022/01/08 10:20:39;;;;;;;83.72;51.35;;;4.30;99.90;;;;;;5079609;28;20095;-84
2022/01/08 10:23:16;;;;;;;84.00;49.83;;;4.10;99.90;;;;;;5081748;28;20135;-82
2022/01/08 10:25:55;;;;;;;92.88;54.15;;;4.10;99.90;;;;;;5079778;28;20048;-83
2022/01/08 10:28:37;;;;;;;92.80;56.50;;;3.90;99.90;;;;;;5059222;28;20047;-82
2022/01/08 10:31:15;;;;;;;90.80;54.13;;;3.80;99.90;;;;;;5068573;28;20068;-80
2022/01/08 10:33:44;;;;;;;88.53;53.60;;;3.80;99.90;;;;;;5077219;28;20480;-83
2022/01/08 10:36:12;;;;;;;82.00;49.83;;;3.70;99.90;;;;;;5058689;28;20419;-82
2022/01/08 10:38:43;;;;;;;82.90;50.15;;;3.70;99.90;;;;;;5058625;28;20048;-83
2022/01/08 10:41:15;;;;;;;83.03;49.20;;;3.70;99.90;;;;;;5077328;28;20140;-83
2022/01/08 10:43:44;;;;;;;81.07;50.35;;;3.70;99.90;;;;;;5055763;28;20076;-81
2022/01/08 10:46:16;;;;;;;81.75;49.47;;;3.70;99.90;;;;;;5060296;28;20071;-85
2022/01/08 10:48:47;;;;;;;80.53;49.58;;;3.70;99.90;;;;;;5079275;28;20064;-85
2022/01/08 10:51:20;;;;;;;81.63;49.65;;;3.80;99.90;;;;;;5089198;28;20476;-82
2022/01/08 10:53:53;;;;;;;81.05;50.42;;;3.80;99.90;;;;;;5081671;28;20068;-83
2022/01/08 10:56:28;;;;;;;84.15;50.38;;;3.90;99.90;;;;;;5084288;28;20040;-82
2022/01/08 10:59:00;;;;;;;74.32;46.40;;;3.90;99.90;;;;;;5080525;28;20045;-81
2022/01/08 11:01:41;;;;;;;79.22;47.35;;;3.80;99.90;;;;;;5064179;28;20040;-82
2022/01/08 11:04:11;;;;;;;79.30;48.35;;;3.70;99.90;;;;;;5083126;28;20052;-81
2022/01/08 11:06:58;;;;;;;81.55;50.10;;;3.60;99.90;;;;;;5080200;28;20036;-83
2022/01/08 11:09:27;;;;;;;88.50;52.60;;;3.70;99.90;;;;;;5092112;28;20036;-81
2022/01/08 11:11:56;;;;;;;92.82;52.83;;;3.90;99.90;;;;;;5094811;28;20059;-81
2022/01/08 11:17:30;;;;;;;83.22;49.92;;;3.90;99.90;;;;;;5002260;28;20053;-83
2022/01/08 11:20:00;;;;;;;74.22;44.22;;;4.00;99.90;;;;;;5000168;28;20454;-78
2022/01/08 11:22:30;;;;;;;84.57;48.00;;;4.10;99.90;;;;;;4997391;28;20101;-78
2022/01/08 11:24:59;;;;;;;81.90;48.70;;;4.10;99.90;;;;;;4998496;28;20050;-79
2022/01/08 11:27:31;;;;;;;86.28;49.47;;;4.10;99.90;;;;;;5003172;28;20080;-81
2022/01/08 11:30:08;;;;;;;97.00;55.40;;;4.20;99.90;;;;;;5005149;28;20042;-80
2022/01/08 11:32:38;;;;;;;73.47;43.17;;;4.30;99.90;;;;;;5004582;28;20067;-82
2022/01/08 11:35:08;;;;;;;77.75;44.92;;;4.40;99.90;;;;;;5005900;28;20047;-86
2022/01/08 11:37:36;;;;;;;76.07;45.70;;;4.40;99.90;;;;;;5002556;28;20054;-80
2022/01/08 11:40:08;;;;;;;83.10;48.95;;;4.40;99.90;;;;;;5013300;28;20077;-81
2022/01/08 11:42:38;;;;;;;83.95;50.63;;;4.50;99.90;;;;;;5003846;28;20165;-83
2022/01/08 11:45:09;;;;;;;87.05;52.53;;;4.50;99.90;;;;;;4998515;28;20069;-79
2022/01/08 11:47:47;;;;;;;93.18;56.08;;;4.70;99.90;;;;;;5012784;28;20084;-81
2022/01/08 11:50:19;;;;;;;88.05;52.15;;;4.80;99.90;;;;;;5081751;28;20049;-80
2022/01/08 11:52:48;;;;;;;80.63;46.72;;;4.80;99.90;;;;;;5082150;28;20049;-81
2022/01/08 11:55:35;;;;;;;81.35;49.78;;;4.60;99.90;;;;;;5082637;28;20094;-78
2022/01/08 11:58:15;;;;;;;80.78;48.40;;;4.60;99.90;;;;;;5085006;28;20051;-80
2022/01/08 12:00:52;;;;;;;75.25;45.92;;;4.40;99.90;;;;;;5066801;28;20059;-80
2022/01/08 12:03:29;;;;;;;80.93;48.38;;;4.20;99.90;;;;;;5063600;28;20080;-79
2022/01/08 12:05:57;;;;;;;82.60;50.63;;;4.10;99.90;;;;;;5086727;28;20050;-79
2022/01/08 12:08:57;;;;;;;84.45;50.88;;;4.20;99.90;;;;;;5067990;28;20057;-82
2022/01/08 12:11:25;;;;;;;76.50;47.80;;;4.20;99.90;;;;;;5086747;28;20045;-80
2022/01/08 12:13:53;;;;;;;79.90;49.40;;;4.00;99.90;;;;;;5088653;28;20045;-81
2022/01/08 12:16:35;;;;;;;77.80;47.78;;;3.90;99.90;;;;;;5088455;28;20063;-81
2022/01/08 12:19:05;;;;;;;85.22;48.78;;;3.90;99.90;;;;;;5066060;28;20411;-80
2022/01/08 12:21:35;;;;;;;81.75;49.05;;;3.80;99.90;;;;;;5084185;28;20044;-79
2022/01/08 12:24:32;;;;;;;84.43;52.25;;;3.80;99.90;;;;;;5080983;28;20466;-81
2022/01/08 12:27:01;;;;;;;86.97;52.90;;;3.80;99.90;;;;;;5078841;28;20207;-78
2022/01/08 12:29:36;;;;;;;83.70;50.70;;;3.90;99.90;;;;;;5078331;28;20032;-81
2022/01/08 12:32:34;;;;;;;86.32;51.03;;;4.00;99.90;;;;;;5079731;28;20044;-80
2022/01/08 12:35:23;;;;;;;86.88;53.17;;;4.00;99.90;;;;;;5078221;28;20483;-81
2022/01/08 12:37:53;;;;;;;82.07;51.20;;;4.00;99.90;;;;;;5079236;28;20085;-81
2022/01/08 12:40:35;;;;;;;88.47;54.75;;;4.10;99.90;;;;;;5078203;28;20079;-80
2022/01/08 12:43:18;;;;;;;76.28;48.42;;;4.20;99.90;;;;;;5078417;28;20036;-82
2022/01/08 12:45:48;;;;;;;83.93;50.17;;;4.20;99.90;;;;;;5061743;28;20048;-82
2022/01/08 12:48:18;;;;;;;75.78;42.15;;;4.30;99.90;;;;;;5078801;28;20096;-80
2022/01/08 12:50:58;;;;;;;72.28;43.67;;;4.30;99.90;;;;;;5079326;28;20054;-81
2022/01/08 12:53:30;;;;;;;73.10;45.67;;;4.30;99.90;;;;;;5079541;28;20047;-81
2022/01/08 12:56:15;;;;;;;85.50;48.60;;;4.20;99.90;;;;;;5085621;28;20068;-83
2022/01/08 12:59:04;;;;;;;82.65;49.35;;;4.30;99.90;;;;;;5085388;28;20044;-81
2022/01/08 13:01:32;;;;;;;83.43;49.15;;;4.30;99.90;;;;;;5080184;28;20044;-80
2022/01/08 13:04:00;;;;;;;74.40;47.88;;;4.20;99.90;;;;;;5078576;28;20128;-79
2022/01/08 13:06:34;;;;;;;87.85;52.80;;;4.20;99.90;;;;;;5081265;28;20036;-81
2022/01/08 13:09:04;;;;;;;85.90;50.63;;;4.20;99.90;;;;;;5068852;28;20061;-80